sensor_id;sensor_type;location;lat;lon;timestamp;P1;durP1;ratioP1;P2;durP2;ratioP2
23228;SDS011;11783;50.350;6.576;2023-02-11T00:02:20;32.10;;;19.13;;
23228;SDS011;11783;50.350;6.576;2023-02-11T00:04:45;41.92;;;21.90;;
23228;SDS011;11783;50.350;6.576;2023-02-11T00:07:22;36.58;;;20.55;;
23228;SDS011;11783;50.350;6.576;2023-02-11T00:09:48;35.20;;;20.02;;
23228;SDS011;11783;50.350;6.576;2023-02-11T00:12:13;34.22;;;19.48;;
23228;SDS011;11783;50.350;6.576;2023-02-11T00:14:43;30.85;;;18.52;;
23228;SDS011;11783;50.350;6.576;2023-02-11T00:17:08;33.75;;;19.52;;
23228;SDS011;11783;50.350;6.576;2023-02-11T00:19:34;35.83;;;19.08;;
23228;SDS011;11783;50.350;6.576;2023-02-11T00:22:01;37.42;;;20.67;;
23228;SDS011;11783;50.350;6.576;2023-02-11T00:24:27;32.72;;;19.40;;
23228;SDS011;11783;50.350;6.576;2023-02-11T00:26:57;33.95;;;19.95;;
23228;SDS011;11783;50.350;6.576;2023-02-11T00:29:23;35.90;;;20.27;;
23228;SDS011;11783;50.350;6.576;2023-02-11T00:31:56;24.17;;;14.68;;
23228;SDS011;11783;50.350;6.576;2023-02-11T00:34:21;34.05;;;18.70;;
23228;SDS011;11783;50.350;6.576;2023-02-11T00:36:47;30.88;;;17.38;;
23228;SDS011;11783;50.350;6.576;2023-02-11T00:39:13;35.78;;;18.88;;
23228;SDS011;11783;50.350;6.576;2023-02-11T00:41:44;30.20;;;18.20;;
23228;SDS011;11783;50.350;6.576;2023-02-11T00:44:09;32.00;;;18.65;;
23228;SDS011;11783;50.350;6.576;2023-02-11T00:46:34;32.05;;;18.75;;
23228;SDS011;11783;50.350;6.576;2023-02-11T00:49:05;31.90;;;18.23;;
23228;SDS011;11783;50.350;6.576;2023-02-11T00:51:31;34.80;;;18.67;;
23228;SDS011;11783;50.350;6.576;2023-02-11T00:56:27;35.08;;;18.55;;
23228;SDS011;11783;50.350;6.576;2023-02-11T00:58:52;33.35;;;19.38;;
23228;SDS011;11783;50.350;6.576;2023-02-11T01:01:18;32.20;;;18.70;;
23228;SDS011;11783;50.350;6.576;2023-02-11T01:03:44;28.98;;;17.83;;
23228;SDS011;11783;50.350;6.576;2023-02-11T01:06:09;34.13;;;19.05;;
23228;SDS011;11783;50.350;6.576;2023-02-11T01:08:36;35.10;;;19.80;;
23228;SDS011;11783;50.350;6.576;2023-02-11T01:11:03;34.85;;;20.73;;
23228;SDS011;11783;50.350;6.576;2023-02-11T01:13:32;36.10;;;20.48;;
23228;SDS011;11783;50.350;6.576;2023-02-11T01:15:59;37.25;;;21.52;;
23228;SDS011;11783;50.350;6.576;2023-02-11T01:18:24;38.80;;;21.67;;
23228;SDS011;11783;50.350;6.576;2023-02-11T01:20:50;32.95;;;20.58;;
23228;SDS011;11783;50.350;6.576;2023-02-11T01:23:17;37.35;;;20.15;;
23228;SDS011;11783;50.350;6.576;2023-02-11T01:25:42;41.42;;;22.00;;
23228;SDS011;11783;50.350;6.576;2023-02-11T01:28:15;34.80;;;20.67;;
23228;SDS011;11783;50.350;6.576;2023-02-11T01:30:41;36.88;;;20.67;;
23228;SDS011;11783;50.350;6.576;2023-02-11T01:33:07;34.70;;;20.33;;
23228;SDS011;11783;50.350;6.576;2023-02-11T01:35:32;40.00;;;21.30;;
23228;SDS011;11783;50.350;6.576;2023-02-11T01:37:58;41.50;;;22.02;;
23228;SDS011;11783;50.350;6.576;2023-02-11T01:40:23;41.22;;;22.55;;
23228;SDS011;11783;50.350;6.576;2023-02-11T01:42:48;38.75;;;22.17;;
23228;SDS011;11783;50.350;6.576;2023-02-11T01:48:14;38.33;;;21.35;;
23228;SDS011;11783;50.350;6.576;2023-02-11T01:50:52;41.90;;;22.83;;
23228;SDS011;11783;50.350;6.576;2023-02-11T01:53:23;34.42;;;20.08;;
23228;SDS011;11783;50.350;6.576;2023-02-11T01:56:11;45.72;;;23.92;;
23228;SDS011;11783;50.350;6.576;2023-02-11T01:58:58;38.72;;;22.35;;
23228;SDS011;11783;50.350;6.576;2023-02-11T02:01:29;41.25;;;22.42;;
23228;SDS011;11783;50.350;6.576;2023-02-11T02:04:00;36.70;;;21.45;;
23228;SDS011;11783;50.350;6.576;2023-02-11T02:06:36;42.55;;;23.33;;
23228;SDS011;11783;50.350;6.576;2023-02-11T02:09:26;41.47;;;23.05;;
23228;SDS011;11783;50.350;6.576;2023-02-11T02:11:55;46.40;;;22.90;;
23228;SDS011;11783;50.350;6.576;2023-02-11T02:14:20;38.45;;;21.25;;
23228;SDS011;11783;50.350;6.576;2023-02-11T02:16:45;43.38;;;23.27;;
23228;SDS011;11783;50.350;6.576;2023-02-11T02:28:10;46.67;;;23.23;;
23228;SDS011;11783;50.350;6.576;2023-02-11T02:33:44;39.35;;;22.58;;
23228;SDS011;11783;50.350;6.576;2023-02-11T02:41:50;40.42;;;22.27;;
23228;SDS011;11783;50.350;6.576;2023-02-11T02:44:20;37.47;;;22.92;;
23228;SDS011;11783;50.350;6.576;2023-02-11T02:46:46;38.70;;;22.20;;
23228;SDS011;11783;50.350;6.576;2023-02-11T02:49:12;41.33;;;23.30;;
23228;SDS011;11783;50.350;6.576;2023-02-11T03:00:12;42.30;;;23.50;;
23228;SDS011;11783;50.350;6.576;2023-02-11T03:06:12;35.30;;;20.38;;
23228;SDS011;11783;50.350;6.576;2023-02-11T03:08:47;44.08;;;23.67;;
23228;SDS011;11783;50.350;6.576;2023-02-11T03:11:18;41.78;;;23.85;;
23228;SDS011;11783;50.350;6.576;2023-02-11T03:13:45;41.38;;;23.17;;
23228;SDS011;11783;50.350;6.576;2023-02-11T03:16:14;39.30;;;21.50;;
23228;SDS011;11783;50.350;6.576;2023-02-11T03:18:43;37.75;;;22.35;;
23228;SDS011;11783;50.350;6.576;2023-02-11T03:21:13;41.88;;;23.23;;
23228;SDS011;11783;50.350;6.576;2023-02-11T03:23:53;44.50;;;24.48;;
23228;SDS011;11783;50.350;6.576;2023-02-11T03:26:31;40.15;;;21.95;;
23228;SDS011;11783;50.350;6.576;2023-02-11T03:37:04;38.08;;;23.00;;
23228;SDS011;11783;50.350;6.576;2023-02-11T03:39:41;38.00;;;21.40;;
23228;SDS011;11783;50.350;6.576;2023-02-11T03:42:10;36.92;;;21.25;;
23228;SDS011;11783;50.350;6.576;2023-02-11T03:44:43;44.50;;;22.95;;
23228;SDS011;11783;50.350;6.576;2023-02-11T03:47:13;36.28;;;21.35;;
23228;SDS011;11783;50.350;6.576;2023-02-11T03:49:42;38.08;;;23.00;;
23228;SDS011;11783;50.350;6.576;2023-02-11T03:52:10;36.67;;;21.17;;
23228;SDS011;11783;50.350;6.576;2023-02-11T03:54:37;40.28;;;21.80;;
23228;SDS011;11783;50.350;6.576;2023-02-11T03:57:07;41.38;;;22.10;;
23228;SDS011;11783;50.350;6.576;2023-02-11T03:59:47;37.65;;;21.20;;
23228;SDS011;11783;50.350;6.576;2023-02-11T04:02:24;40.22;;;21.90;;
23228;SDS011;11783;50.350;6.576;2023-02-11T04:04:52;40.50;;;22.27;;
23228;SDS011;11783;50.350;6.576;2023-02-11T04:07:18;39.10;;;22.63;;
23228;SDS011;11783;50.350;6.576;2023-02-11T04:09:43;37.33;;;21.13;;
23228;SDS011;11783;50.350;6.576;2023-02-11T04:12:09;42.65;;;22.50;;
23228;SDS011;11783;50.350;6.576;2023-02-11T04:14:34;42.05;;;23.80;;
23228;SDS011;11783;50.350;6.576;2023-02-11T04:17:00;40.83;;;22.80;;
23228;SDS011;11783;50.350;6.576;2023-02-11T04:19:25;41.42;;;22.02;;
23228;SDS011;11783;50.350;6.576;2023-02-11T04:21:51;42.45;;;23.77;;
23228;SDS011;11783;50.350;6.576;2023-02-11T04:24:16;43.08;;;23.48;;
23228;SDS011;11783;50.350;6.576;2023-02-11T04:26:41;39.72;;;21.45;;
23228;SDS011;11783;50.350;6.576;2023-02-11T04:29:09;42.67;;;23.98;;
23228;SDS011;11783;50.350;6.576;2023-02-11T04:31:35;42.80;;;23.17;;
23228;SDS011;11783;50.350;6.576;2023-02-11T04:34:03;40.47;;;23.13;;
23228;SDS011;11783;50.350;6.576;2023-02-11T04:36:28;45.15;;;23.40;;
23228;SDS011;11783;50.350;6.576;2023-02-11T04:38:53;43.75;;;23.85;;
23228;SDS011;11783;50.350;6.576;2023-02-11T04:41:19;44.95;;;24.67;;
23228;SDS011;11783;50.350;6.576;2023-02-11T04:43:44;41.80;;;23.55;;
23228;SDS011;11783;50.350;6.576;2023-02-11T04:46:12;40.25;;;23.05;;
23228;SDS011;11783;50.350;6.576;2023-02-11T04:48:38;38.20;;;21.45;;
23228;SDS011;11783;50.350;6.576;2023-02-11T04:51:03;42.03;;;23.98;;
23228;SDS011;11783;50.350;6.576;2023-02-11T04:53:29;42.45;;;23.30;;
23228;SDS011;11783;50.350;6.576;2023-02-11T04:55:56;39.17;;;21.88;;
23228;SDS011;11783;50.350;6.576;2023-02-11T04:58:24;41.22;;;23.52;;
23228;SDS011;11783;50.350;6.576;2023-02-11T05:00:49;42.33;;;22.67;;
23228;SDS011;11783;50.350;6.576;2023-02-11T05:03:15;42.00;;;22.48;;
23228;SDS011;11783;50.350;6.576;2023-02-11T05:05:41;41.80;;;22.65;;
23228;SDS011;11783;50.350;6.576;2023-02-11T05:08:07;39.67;;;22.42;;
23228;SDS011;11783;50.350;6.576;2023-02-11T05:10:33;38.30;;;21.67;;
23228;SDS011;11783;50.350;6.576;2023-02-11T05:13:01;39.38;;;21.60;;
23228;SDS011;11783;50.350;6.576;2023-02-11T05:15:26;42.83;;;22.58;;
23228;SDS011;11783;50.350;6.576;2023-02-11T05:17:52;40.40;;;22.45;;
23228;SDS011;11783;50.350;6.576;2023-02-11T05:20:24;44.28;;;21.90;;
23228;SDS011;11783;50.350;6.576;2023-02-11T05:22:49;40.58;;;21.85;;
23228;SDS011;11783;50.350;6.576;2023-02-11T05:25:14;41.42;;;20.90;;
23228;SDS011;11783;50.350;6.576;2023-02-11T05:27:42;38.00;;;20.08;;
23228;SDS011;11783;50.350;6.576;2023-02-11T05:30:08;42.08;;;22.40;;
23228;SDS011;11783;50.350;6.576;2023-02-11T05:32:34;42.95;;;21.77;;
23228;SDS011;11783;50.350;6.576;2023-02-11T05:35:02;43.95;;;20.48;;
23228;SDS011;11783;50.350;6.576;2023-02-11T05:37:28;41.08;;;21.60;;
23228;SDS011;11783;50.350;6.576;2023-02-11T05:39:55;40.00;;;20.58;;
23228;SDS011;11783;50.350;6.576;2023-02-11T05:42:21;40.95;;;21.90;;
23228;SDS011;11783;50.350;6.576;2023-02-11T05:44:49;39.47;;;21.33;;
23228;SDS011;11783;50.350;6.576;2023-02-11T05:47:14;37.30;;;20.45;;
23228;SDS011;11783;50.350;6.576;2023-02-11T05:49:45;40.63;;;20.65;;
23228;SDS011;11783;50.350;6.576;2023-02-11T05:52:10;37.58;;;20.15;;
23228;SDS011;11783;50.350;6.576;2023-02-11T05:54:36;38.58;;;19.75;;
23228;SDS011;11783;50.350;6.576;2023-02-11T05:57:01;38.72;;;19.70;;
23228;SDS011;11783;50.350;6.576;2023-02-11T05:59:30;34.80;;;18.80;;
23228;SDS011;11783;50.350;6.576;2023-02-11T06:01:56;37.05;;;19.75;;
23228;SDS011;11783;50.350;6.576;2023-02-11T06:04:21;35.90;;;19.42;;
23228;SDS011;11783;50.350;6.576;2023-02-11T06:06:52;39.90;;;20.05;;
23228;SDS011;11783;50.350;6.576;2023-02-11T06:09:25;37.47;;;19.77;;
23228;SDS011;11783;50.350;6.576;2023-02-11T06:11:57;34.58;;;18.77;;
23228;SDS011;11783;50.350;6.576;2023-02-11T06:14:22;34.15;;;18.85;;
23228;SDS011;11783;50.350;6.576;2023-02-11T06:16:51;32.17;;;16.98;;
23228;SDS011;11783;50.350;6.576;2023-02-11T06:19:19;34.65;;;18.90;;
23228;SDS011;11783;50.350;6.576;2023-02-11T06:21:46;36.35;;;17.55;;
23228;SDS011;11783;50.350;6.576;2023-02-11T06:24:14;35.20;;;18.15;;
23228;SDS011;11783;50.350;6.576;2023-02-11T06:26:43;29.35;;;15.25;;
23228;SDS011;11783;50.350;6.576;2023-02-11T06:29:15;32.63;;;17.70;;
23228;SDS011;11783;50.350;6.576;2023-02-11T06:31:44;32.10;;;17.05;;
23228;SDS011;11783;50.350;6.576;2023-02-11T06:34:10;35.42;;;19.35;;
23228;SDS011;11783;50.350;6.576;2023-02-11T06:39:12;27.40;;;13.67;;
23228;SDS011;11783;50.350;6.576;2023-02-11T06:41:38;32.80;;;18.08;;
23228;SDS011;11783;50.350;6.576;2023-02-11T06:44:06;33.05;;;18.08;;
23228;SDS011;11783;50.350;6.576;2023-02-11T06:46:31;32.58;;;17.45;;
23228;SDS011;11783;50.350;6.576;2023-02-11T06:48:59;29.50;;;16.42;;
23228;SDS011;11783;50.350;6.576;2023-02-11T06:51:28;30.88;;;17.23;;
23228;SDS011;11783;50.350;6.576;2023-02-11T06:53:58;35.78;;;17.42;;
23228;SDS011;11783;50.350;6.576;2023-02-11T06:56:30;27.63;;;16.20;;
23228;SDS011;11783;50.350;6.576;2023-02-11T06:59:00;31.83;;;16.40;;
23228;SDS011;11783;50.350;6.576;2023-02-11T07:01:28;26.38;;;15.65;;
23228;SDS011;11783;50.350;6.576;2023-02-11T07:03:55;27.85;;;15.15;;
23228;SDS011;11783;50.350;6.576;2023-02-11T07:06:22;29.55;;;16.05;;
23228;SDS011;11783;50.350;6.576;2023-02-11T07:08:54;30.30;;;15.90;;
23228;SDS011;11783;50.350;6.576;2023-02-11T07:13:52;27.92;;;15.88;;
23228;SDS011;11783;50.350;6.576;2023-02-11T07:16:23;31.63;;;16.50;;
23228;SDS011;11783;50.350;6.576;2023-02-11T07:18:55;26.17;;;15.18;;
23228;SDS011;11783;50.350;6.576;2023-02-11T07:21:24;29.05;;;16.13;;
23228;SDS011;11783;50.350;6.576;2023-02-11T07:23:50;28.80;;;16.52;;
23228;SDS011;11783;50.350;6.576;2023-02-11T07:26:17;29.30;;;15.80;;
23228;SDS011;11783;50.350;6.576;2023-02-11T07:28:47;27.63;;;15.32;;
23228;SDS011;11783;50.350;6.576;2023-02-11T07:31:22;27.60;;;15.88;;
23228;SDS011;11783;50.350;6.576;2023-02-11T07:33:50;24.77;;;14.15;;
23228;SDS011;11783;50.350;6.576;2023-02-11T07:36:20;25.13;;;14.13;;
23228;SDS011;11783;50.350;6.576;2023-02-11T07:38:51;21.98;;;13.02;;
23228;SDS011;11783;50.350;6.576;2023-02-11T07:41:20;20.85;;;12.27;;
23228;SDS011;11783;50.350;6.576;2023-02-11T07:43:47;20.02;;;12.13;;
23228;SDS011;11783;50.350;6.576;2023-02-11T07:46:14;19.50;;;11.75;;
23228;SDS011;11783;50.350;6.576;2023-02-11T07:48:50;20.73;;;11.77;;
23228;SDS011;11783;50.350;6.576;2023-02-11T07:51:22;21.25;;;12.55;;
23228;SDS011;11783;50.350;6.576;2023-02-11T07:53:49;22.75;;;13.32;;
23228;SDS011;11783;50.350;6.576;2023-02-11T07:56:17;24.17;;;13.80;;
23228;SDS011;11783;50.350;6.576;2023-02-11T07:58:47;22.27;;;13.02;;
23228;SDS011;11783;50.350;6.576;2023-02-11T08:01:15;23.52;;;14.35;;
23228;SDS011;11783;50.350;6.576;2023-02-11T08:03:45;21.90;;;12.50;;
23228;SDS011;11783;50.350;6.576;2023-02-11T08:06:12;19.30;;;12.10;;
23228;SDS011;11783;50.350;6.576;2023-02-11T08:08:46;22.15;;;12.05;;
23228;SDS011;11783;50.350;6.576;2023-02-11T08:13:39;21.13;;;12.32;;
23228;SDS011;11783;50.350;6.576;2023-02-11T08:16:05;19.65;;;11.52;;
23228;SDS011;11783;50.350;6.576;2023-02-11T08:18:32;22.00;;;12.23;;
23228;SDS011;11783;50.350;6.576;2023-02-11T08:21:05;19.77;;;11.57;;
23228;SDS011;11783;50.350;6.576;2023-02-11T08:23:32;17.42;;;11.07;;
23228;SDS011;11783;50.350;6.576;2023-02-11T08:26:03;19.40;;;11.13;;
23228;SDS011;11783;50.350;6.576;2023-02-11T08:28:35;20.05;;;11.98;;
23228;SDS011;11783;50.350;6.576;2023-02-11T08:31:05;19.27;;;11.10;;
23228;SDS011;11783;50.350;6.576;2023-02-11T08:33:31;17.65;;;10.70;;
23228;SDS011;11783;50.350;6.576;2023-02-11T08:35:57;17.65;;;10.50;;
23228;SDS011;11783;50.350;6.576;2023-02-11T08:38:23;16.70;;;10.00;;
23228;SDS011;11783;50.350;6.576;2023-02-11T08:40:48;18.15;;;11.02;;
23228;SDS011;11783;50.350;6.576;2023-02-11T08:43:13;19.52;;;11.43;;
23228;SDS011;11783;50.350;6.576;2023-02-11T08:45:39;19.92;;;12.10;;
23228;SDS011;11783;50.350;6.576;2023-02-11T08:48:09;13.82;;;8.25;;
23228;SDS011;11783;50.350;6.576;2023-02-11T08:50:38;16.88;;;10.02;;
23228;SDS011;11783;50.350;6.576;2023-02-11T08:53:06;18.40;;;10.85;;
23228;SDS011;11783;50.350;6.576;2023-02-11T08:55:35;18.88;;;11.05;;
23228;SDS011;11783;50.350;6.576;2023-02-11T08:58:04;17.77;;;10.43;;
23228;SDS011;11783;50.350;6.576;2023-02-11T09:00:30;17.17;;;10.45;;
23228;SDS011;11783;50.350;6.576;2023-02-11T09:02:58;18.42;;;10.85;;
23228;SDS011;11783;50.350;6.576;2023-02-11T09:05:26;17.35;;;10.50;;
23228;SDS011;11783;50.350;6.576;2023-02-11T09:07:52;17.77;;;10.32;;
23228;SDS011;11783;50.350;6.576;2023-02-11T09:10:17;18.23;;;10.77;;
23228;SDS011;11783;50.350;6.576;2023-02-11T09:12:45;19.25;;;10.63;;
23228;SDS011;11783;50.350;6.576;2023-02-11T09:15:15;15.88;;;9.63;;
23228;SDS011;11783;50.350;6.576;2023-02-11T09:17:44;17.33;;;10.80;;
23228;SDS011;11783;50.350;6.576;2023-02-11T09:20:11;18.77;;;10.32;;
23228;SDS011;11783;50.350;6.576;2023-02-11T09:22:40;17.02;;;10.00;;
23228;SDS011;11783;50.350;6.576;2023-02-11T09:25:05;18.83;;;11.25;;
23228;SDS011;11783;50.350;6.576;2023-02-11T09:27:31;18.13;;;11.05;;
23228;SDS011;11783;50.350;6.576;2023-02-11T09:29:59;19.45;;;11.52;;
23228;SDS011;11783;50.350;6.576;2023-02-11T09:32:24;19.25;;;12.23;;
23228;SDS011;11783;50.350;6.576;2023-02-11T09:34:50;19.48;;;11.90;;
23228;SDS011;11783;50.350;6.576;2023-02-11T09:37:15;18.45;;;11.57;;
23228;SDS011;11783;50.350;6.576;2023-02-11T09:39:40;19.63;;;11.57;;
23228;SDS011;11783;50.350;6.576;2023-02-11T09:44:55;19.98;;;11.75;;
23228;SDS011;11783;50.350;6.576;2023-02-11T09:47:29;21.67;;;12.68;;
23228;SDS011;11783;50.350;6.576;2023-02-11T09:50:10;24.63;;;14.38;;
23228;SDS011;11783;50.350;6.576;2023-02-11T09:55:24;25.33;;;15.02;;
23228;SDS011;11783;50.350;6.576;2023-02-11T09:57:54;26.27;;;16.02;;
23228;SDS011;11783;50.350;6.576;2023-02-11T10:00:22;25.05;;;14.52;;
23228;SDS011;11783;50.350;6.576;2023-02-11T10:20:20;25.15;;;14.38;;
23228;SDS011;11783;50.350;6.576;2023-02-11T10:22:53;22.40;;;13.63;;
23228;SDS011;11783;50.350;6.576;2023-02-11T10:27:50;22.15;;;13.55;;
23228;SDS011;11783;50.350;6.576;2023-02-11T10:30:36;23.92;;;14.15;;
23228;SDS011;11783;50.350;6.576;2023-02-11T10:35:37;21.95;;;13.00;;
23228;SDS011;11783;50.350;6.576;2023-02-11T10:38:02;24.15;;;13.82;;
23228;SDS011;11783;50.350;6.576;2023-02-11T10:40:28;22.50;;;13.82;;
23228;SDS011;11783;50.350;6.576;2023-02-11T10:42:58;22.30;;;13.48;;
23228;SDS011;11783;50.350;6.576;2023-02-11T10:51:06;23.13;;;13.93;;
23228;SDS011;11783;50.350;6.576;2023-02-11T10:53:34;20.80;;;12.05;;
23228;SDS011;11783;50.350;6.576;2023-02-11T10:56:00;21.40;;;13.00;;
23228;SDS011;11783;50.350;6.576;2023-02-11T10:58:31;23.52;;;13.15;;
23228;SDS011;11783;50.350;6.576;2023-02-11T11:01:02;24.80;;;15.00;;
23228;SDS011;11783;50.350;6.576;2023-02-11T11:03:31;23.90;;;14.65;;
23228;SDS011;11783;50.350;6.576;2023-02-11T11:06:04;26.25;;;16.17;;
23228;SDS011;11783;50.350;6.576;2023-02-11T11:11:09;24.40;;;15.07;;
23228;SDS011;11783;50.350;6.576;2023-02-11T11:13:38;21.15;;;13.35;;
23228;SDS011;11783;50.350;6.576;2023-02-11T11:16:07;24.90;;;17.20;;
23228;SDS011;11783;50.350;6.576;2023-02-11T11:18:38;25.02;;;17.10;;
23228;SDS011;11783;50.350;6.576;2023-02-11T11:21:05;32.55;;;17.58;;
23228;SDS011;11783;50.350;6.576;2023-02-11T11:23:36;24.42;;;14.98;;
23228;SDS011;11783;50.350;6.576;2023-02-11T11:28:34;34.80;;;28.23;;
23228;SDS011;11783;50.350;6.576;2023-02-11T11:31:05;20.73;;;13.05;;
23228;SDS011;11783;50.350;6.576;2023-02-11T11:33:39;19.02;;;12.13;;
23228;SDS011;11783;50.350;6.576;2023-02-11T11:36:07;18.95;;;11.30;;
23228;SDS011;11783;50.350;6.576;2023-02-11T11:38:37;20.67;;;12.90;;
23228;SDS011;11783;50.350;6.576;2023-02-11T11:41:16;18.95;;;11.40;;
23228;SDS011;11783;50.350;6.576;2023-02-11T11:43:54;20.02;;;10.75;;
23228;SDS011;11783;50.350;6.576;2023-02-11T11:46:22;18.77;;;11.30;;
23228;SDS011;11783;50.350;6.576;2023-02-11T11:48:50;19.45;;;11.93;;
23228;SDS011;11783;50.350;6.576;2023-02-11T11:51:20;21.02;;;12.45;;
23228;SDS011;11783;50.350;6.576;2023-02-11T11:53:59;20.02;;;11.80;;
23228;SDS011;11783;50.350;6.576;2023-02-11T11:56:33;14.03;;;9.20;;
23228;SDS011;11783;50.350;6.576;2023-02-11T11:59:09;19.83;;;11.95;;
23228;SDS011;11783;50.350;6.576;2023-02-11T12:09:52;18.70;;;11.13;;
23228;SDS011;11783;50.350;6.576;2023-02-11T12:26:15;16.92;;;9.95;;
23228;SDS011;11783;50.350;6.576;2023-02-11T12:31:40;17.42;;;9.88;;
23228;SDS011;11783;50.350;6.576;2023-02-11T12:34:20;15.23;;;9.32;;
23228;SDS011;11783;50.350;6.576;2023-02-11T12:39:54;16.27;;;9.57;;
23228;SDS011;11783;50.350;6.576;2023-02-11T12:51:12;15.98;;;8.80;;
23228;SDS011;11783;50.350;6.576;2023-02-11T12:56:50;24.05;;;15.55;;
23228;SDS011;11783;50.350;6.576;2023-02-11T12:59:19;13.13;;;7.88;;
23228;SDS011;11783;50.350;6.576;2023-02-11T13:01:55;12.82;;;7.60;;
23228;SDS011;11783;50.350;6.576;2023-02-11T13:07:03;15.18;;;7.85;;
23228;SDS011;11783;50.350;6.576;2023-02-11T13:09:44;12.52;;;6.70;;
23228;SDS011;11783;50.350;6.576;2023-02-11T13:12:15;11.63;;;6.32;;
23228;SDS011;11783;50.350;6.576;2023-02-11T13:15:01;12.73;;;6.60;;
23228;SDS011;11783;50.350;6.576;2023-02-11T13:17:39;12.90;;;6.35;;
23228;SDS011;11783;50.350;6.576;2023-02-11T13:20:14;14.02;;;6.40;;
23228;SDS011;11783;50.350;6.576;2023-02-11T13:23:02;13.63;;;7.43;;
23228;SDS011;11783;50.350;6.576;2023-02-11T13:25:39;14.30;;;7.55;;
23228;SDS011;11783;50.350;6.576;2023-02-11T13:31:20;12.50;;;7.20;;
23228;SDS011;11783;50.350;6.576;2023-02-11T13:33:50;14.25;;;7.65;;
23228;SDS011;11783;50.350;6.576;2023-02-11T13:38:59;11.05;;;6.63;;
23228;SDS011;11783;50.350;6.576;2023-02-11T13:41:31;13.60;;;7.22;;
23228;SDS011;11783;50.350;6.576;2023-02-11T13:44:00;12.00;;;7.50;;
23228;SDS011;11783;50.350;6.576;2023-02-11T13:46:58;11.85;;;6.63;;
23228;SDS011;11783;50.350;6.576;2023-02-11T13:49:30;11.88;;;7.38;;
23228;SDS011;11783;50.350;6.576;2023-02-11T13:51:59;14.07;;;7.72;;
23228;SDS011;11783;50.350;6.576;2023-02-11T13:54:28;12.68;;;6.88;;
23228;SDS011;11783;50.350;6.576;2023-02-11T14:02:33;14.57;;;8.23;;
23228;SDS011;11783;50.350;6.576;2023-02-11T14:21:10;13.07;;;7.75;;
23228;SDS011;11783;50.350;6.576;2023-02-11T14:23:40;11.43;;;6.90;;
23228;SDS011;11783;50.350;6.576;2023-02-11T14:32:46;16.35;;;9.57;;
23228;SDS011;11783;50.350;6.576;2023-02-11T14:40:26;14.93;;;9.02;;
23228;SDS011;11783;50.350;6.576;2023-02-11T14:43:20;15.43;;;9.32;;
23228;SDS011;11783;50.350;6.576;2023-02-11T14:45:50;15.55;;;9.10;;
23228;SDS011;11783;50.350;6.576;2023-02-11T14:48:18;16.30;;;9.63;;
23228;SDS011;11783;50.350;6.576;2023-02-11T14:51:20;18.30;;;11.05;;
23228;SDS011;11783;50.350;6.576;2023-02-11T14:53:48;11.25;;;6.80;;
23228;SDS011;11783;50.350;6.576;2023-02-11T14:56:27;14.70;;;9.57;;
23228;SDS011;11783;50.350;6.576;2023-02-11T14:58:55;13.10;;;8.43;;
23228;SDS011;11783;50.350;6.576;2023-02-11T15:01:23;14.57;;;7.88;;
23228;SDS011;11783;50.350;6.576;2023-02-11T15:03:57;11.52;;;7.25;;
23228;SDS011;11783;50.350;6.576;2023-02-11T15:11:28;11.55;;;7.25;;
23228;SDS011;11783;50.350;6.576;2023-02-11T15:13:58;14.65;;;8.63;;
23228;SDS011;11783;50.350;6.576;2023-02-11T15:16:31;13.38;;;8.40;;
23228;SDS011;11783;50.350;6.576;2023-02-11T15:19:02;13.35;;;7.53;;
23228;SDS011;11783;50.350;6.576;2023-02-11T15:21:32;11.88;;;7.65;;
23228;SDS011;11783;50.350;6.576;2023-02-11T15:26:26;12.52;;;7.57;;
23228;SDS011;11783;50.350;6.576;2023-02-11T15:28:53;12.63;;;7.45;;
23228;SDS011;11783;50.350;6.576;2023-02-11T15:31:21;12.80;;;7.38;;
23228;SDS011;11783;50.350;6.576;2023-02-11T15:33:48;11.77;;;7.35;;
23228;SDS011;11783;50.350;6.576;2023-02-11T15:36:17;13.10;;;8.35;;
23228;SDS011;11783;50.350;6.576;2023-02-11T15:38:45;11.30;;;7.28;;
23228;SDS011;11783;50.350;6.576;2023-02-11T15:44:02;10.77;;;6.95;;
23228;SDS011;11783;50.350;6.576;2023-02-11T15:46:31;10.68;;;6.32;;
23228;SDS011;11783;50.350;6.576;2023-02-11T15:49:02;10.18;;;6.70;;
23228;SDS011;11783;50.350;6.576;2023-02-11T15:51:29;11.13;;;7.07;;
23228;SDS011;11783;50.350;6.576;2023-02-11T15:53:59;7.77;;;4.93;;
23228;SDS011;11783;50.350;6.576;2023-02-11T15:56:40;11.95;;;6.60;;
23228;SDS011;11783;50.350;6.576;2023-02-11T16:01:50;10.75;;;6.20;;
23228;SDS011;11783;50.350;6.576;2023-02-11T16:04:17;11.63;;;6.82;;
23228;SDS011;11783;50.350;6.576;2023-02-11T16:06:52;9.98;;;6.45;;
23228;SDS011;11783;50.350;6.576;2023-02-11T16:09:29;10.05;;;5.80;;
23228;SDS011;11783;50.350;6.576;2023-02-11T16:11:58;11.27;;;6.60;;
23228;SDS011;11783;50.350;6.576;2023-02-11T16:14:44;10.20;;;6.22;;
23228;SDS011;11783;50.350;6.576;2023-02-11T16:17:22;11.32;;;6.50;;
23228;SDS011;11783;50.350;6.576;2023-02-11T16:19:55;12.60;;;7.15;;
23228;SDS011;11783;50.350;6.576;2023-02-11T16:24:49;10.32;;;5.97;;
23228;SDS011;11783;50.350;6.576;2023-02-11T16:29:52;11.02;;;6.72;;
23228;SDS011;11783;50.350;6.576;2023-02-11T16:34:55;11.98;;;7.22;;
23228;SDS011;11783;50.350;6.576;2023-02-11T16:37:22;11.02;;;7.07;;
23228;SDS011;11783;50.350;6.576;2023-02-11T16:39:48;12.93;;;8.30;;
23228;SDS011;11783;50.350;6.576;2023-02-11T16:42:14;14.50;;;9.63;;
23228;SDS011;11783;50.350;6.576;2023-02-11T16:44:42;11.45;;;8.10;;
23228;SDS011;11783;50.350;6.576;2023-02-11T16:47:12;10.15;;;6.90;;
23228;SDS011;11783;50.350;6.576;2023-02-11T16:49:43;10.45;;;7.40;;
23228;SDS011;11783;50.350;6.576;2023-02-11T16:52:12;10.38;;;6.70;;
23228;SDS011;11783;50.350;6.576;2023-02-11T16:54:39;10.85;;;7.45;;
23228;SDS011;11783;50.350;6.576;2023-02-11T16:57:15;13.50;;;8.20;;
23228;SDS011;11783;50.350;6.576;2023-02-11T16:59:41;12.40;;;7.70;;
23228;SDS011;11783;50.350;6.576;2023-02-11T17:02:27;10.82;;;6.75;;
23228;SDS011;11783;50.350;6.576;2023-02-11T17:04:55;11.48;;;7.20;;
23228;SDS011;11783;50.350;6.576;2023-02-11T17:07:26;8.65;;;5.82;;
23228;SDS011;11783;50.350;6.576;2023-02-11T17:09:55;9.50;;;6.40;;
23228;SDS011;11783;50.350;6.576;2023-02-11T17:12:24;10.38;;;6.13;;
23228;SDS011;11783;50.350;6.576;2023-02-11T17:14:52;8.55;;;5.63;;
23228;SDS011;11783;50.350;6.576;2023-02-11T17:17:18;8.77;;;5.28;;
23228;SDS011;11783;50.350;6.576;2023-02-11T17:19:45;8.85;;;5.60;;
23228;SDS011;11783;50.350;6.576;2023-02-11T17:22:15;9.70;;;5.43;;
23228;SDS011;11783;50.350;6.576;2023-02-11T17:24:40;9.18;;;5.40;;
23228;SDS011;11783;50.350;6.576;2023-02-11T17:27:05;9.25;;;5.85;;
23228;SDS011;11783;50.350;6.576;2023-02-11T17:29:36;10.15;;;6.15;;
23228;SDS011;11783;50.350;6.576;2023-02-11T17:32:07;8.85;;;5.53;;
23228;SDS011;11783;50.350;6.576;2023-02-11T17:34:33;11.10;;;5.82;;
23228;SDS011;11783;50.350;6.576;2023-02-11T17:36:58;8.45;;;5.60;;
23228;SDS011;11783;50.350;6.576;2023-02-11T17:39:33;9.75;;;5.85;;
23228;SDS011;11783;50.350;6.576;2023-02-11T17:42:02;9.57;;;5.75;;
23228;SDS011;11783;50.350;6.576;2023-02-11T17:44:30;9.70;;;5.97;;
23228;SDS011;11783;50.350;6.576;2023-02-11T17:46:55;9.63;;;5.85;;
23228;SDS011;11783;50.350;6.576;2023-02-11T17:49:21;10.55;;;6.40;;
23228;SDS011;11783;50.350;6.576;2023-02-11T17:51:46;9.68;;;5.82;;